sensor_id;sensor_type;location;lat;lon;timestamp;pressure;altitude;pressure_sealevel;temperature;humidity
10366;BME280;5229;41.820;23.490;2022-10-16T00:01:37;90566.94;;;9.02;63.16
10366;BME280;5229;41.820;23.490;2022-10-16T00:04:06;90562.53;;;9.03;63.75
10366;BME280;5229;41.820;23.490;2022-10-16T00:06:33;90565.09;;;9.03;63.43
10366;BME280;5229;41.820;23.490;2022-10-16T00:09:00;90566.16;;;9.02;63.49
10366;BME280;5229;41.820;23.490;2022-10-16T00:11:29;90569.31;;;8.99;64.10
10366;BME280;5229;41.820;23.490;2022-10-16T00:13:58;90569.13;;;8.95;64.14
10366;BME280;5229;41.820;23.490;2022-10-16T00:16:26;90566.31;;;8.92;64.07
10366;BME280;5229;41.820;23.490;2022-10-16T00:18:53;90571.75;;;8.90;64.21
10366;BME280;5229;41.820;23.490;2022-10-16T00:21:23;90571.00;;;8.90;63.74
10366;BME280;5229;41.820;23.490;2022-10-16T00:23:51;90572.81;;;8.89;64.06
10366;BME280;5229;41.820;23.490;2022-10-16T00:26:18;90574.63;;;8.89;64.17
10366;BME280;5229;41.820;23.490;2022-10-16T00:28:46;90567.91;;;8.88;64.08
10366;BME280;5229;41.820;23.490;2022-10-16T00:31:13;90568.97;;;8.87;63.75
10366;BME280;5229;41.820;23.490;2022-10-16T00:33:40;90564.81;;;8.86;63.61
10366;BME280;5229;41.820;23.490;2022-10-16T00:36:10;90568.47;;;8.85;64.20
10366;BME280;5229;41.820;23.490;2022-10-16T00:38:39;90571.31;;;8.83;64.51
10366;BME280;5229;41.820;23.490;2022-10-16T00:41:06;90562.31;;;8.81;64.25
10366;BME280;5229;41.820;23.490;2022-10-16T00:43:39;90574.75;;;8.79;64.75
10366;BME280;5229;41.820;23.490;2022-10-16T00:46:13;90569.09;;;8.77;64.29
10366;BME280;5229;41.820;23.490;2022-10-16T00:48:46;90575.31;;;8.76;64.18
10366;BME280;5229;41.820;23.490;2022-10-16T00:51:14;90576.06;;;8.76;64.59
10366;BME280;5229;41.820;23.490;2022-10-16T00:53:44;90574.81;;;8.74;64.64
10366;BME280;5229;41.820;23.490;2022-10-16T00:56:11;90575.88;;;8.73;64.42
10366;BME280;5229;41.820;23.490;2022-10-16T00:58:38;90573.75;;;8.75;64.25
10366;BME280;5229;41.820;23.490;2022-10-16T01:01:05;90577.41;;;8.74;64.86
10366;BME280;5229;41.820;23.490;2022-10-16T01:03:34;90578.94;;;8.75;64.15
10366;BME280;5229;41.820;23.490;2022-10-16T01:06:11;90590.88;;;8.71;64.92
10366;BME280;5229;41.820;23.490;2022-10-16T01:09:03;90595.34;;;8.65;64.50
10366;BME280;5229;41.820;23.490;2022-10-16T01:11:41;90595.13;;;8.62;64.89
10366;BME280;5229;41.820;23.490;2022-10-16T01:14:15;90600.84;;;8.59;64.69
10366;BME280;5229;41.820;23.490;2022-10-16T01:16:48;90591.56;;;8.58;65.15
10366;BME280;5229;41.820;23.490;2022-10-16T01:19:26;90596.50;;;8.54;64.44
10366;BME280;5229;41.820;23.490;2022-10-16T01:22:00;90599.09;;;8.54;65.22
10366;BME280;5229;41.820;23.490;2022-10-16T01:24:35;90595.72;;;8.54;65.25
10366;BME280;5229;41.820;23.490;2022-10-16T01:27:13;90594.19;;;8.53;65.18
10366;BME280;5229;41.820;23.490;2022-10-16T01:29:49;90590.09;;;8.52;64.84
10366;BME280;5229;41.820;23.490;2022-10-16T01:32:31;90594.28;;;8.48;64.69
10366;BME280;5229;41.820;23.490;2022-10-16T01:35:05;90592.44;;;8.48;65.17
10366;BME280;5229;41.820;23.490;2022-10-16T01:37:41;90595.03;;;8.48;65.38
10366;BME280;5229;41.820;23.490;2022-10-16T01:40:15;90596.31;;;8.51;65.43
10366;BME280;5229;41.820;23.490;2022-10-16T01:42:47;90604.53;;;8.53;64.80
10366;BME280;5229;41.820;23.490;2022-10-16T01:45:17;90604.06;;;8.51;65.13
10366;BME280;5229;41.820;23.490;2022-10-16T01:47:46;90603.81;;;8.47;65.24
10366;BME280;5229;41.820;23.490;2022-10-16T01:50:22;90607.22;;;8.43;65.22
10366;BME280;5229;41.820;23.490;2022-10-16T01:52:56;90606.25;;;8.39;64.85
10366;BME280;5229;41.820;23.490;2022-10-16T01:55:26;90602.13;;;8.38;65.80
10366;BME280;5229;41.820;23.490;2022-10-16T01:57:59;90605.75;;;8.37;65.87
10366;BME280;5229;41.820;23.490;2022-10-16T02:00:31;90612.72;;;8.36;65.61
10366;BME280;5229;41.820;23.490;2022-10-16T02:03:01;90610.44;;;8.35;65.11
10366;BME280;5229;41.820;23.490;2022-10-16T02:05:32;90607.34;;;8.33;65.20
10366;BME280;5229;41.820;23.490;2022-10-16T02:08:00;90612.50;;;8.33;65.60
10366;BME280;5229;41.820;23.490;2022-10-16T02:10:27;90601.41;;;8.32;65.26
10366;BME280;5229;41.820;23.490;2022-10-16T02:13:03;90601.41;;;8.32;65.36
10366;BME280;5229;41.820;23.490;2022-10-16T02:15:31;90597.56;;;8.30;65.17
10366;BME280;5229;41.820;23.490;2022-10-16T02:17:58;90599.66;;;8.28;65.88
10366;BME280;5229;41.820;23.490;2022-10-16T02:20:28;90599.44;;;8.24;66.19
10366;BME280;5229;41.820;23.490;2022-10-16T02:22:58;90597.13;;;8.23;65.77
10366;BME280;5229;41.820;23.490;2022-10-16T02:25:29;90611.06;;;8.22;66.18
10366;BME280;5229;41.820;23.490;2022-10-16T02:28:01;90615.22;;;8.18;65.89
10366;BME280;5229;41.820;23.490;2022-10-16T02:30:33;90601.81;;;8.16;66.36
10366;BME280;5229;41.820;23.490;2022-10-16T02:33:02;90611.63;;;8.14;66.47
10366;BME280;5229;41.820;23.490;2022-10-16T02:35:31;90608.59;;;8.12;65.66
10366;BME280;5229;41.820;23.490;2022-10-16T02:37:59;90606.28;;;8.10;66.59
10366;BME280;5229;41.820;23.490;2022-10-16T02:40:26;90612.47;;;8.09;66.17
10366;BME280;5229;41.820;23.490;2022-10-16T02:42:55;90613.22;;;8.10;66.52
10366;BME280;5229;41.820;23.490;2022-10-16T02:45:23;90609.59;;;8.11;66.15
10366;BME280;5229;41.820;23.490;2022-10-16T02:47:51;90612.19;;;8.11;66.02
10366;BME280;5229;41.820;23.490;2022-10-16T02:50:17;90611.16;;;8.12;65.82
10366;BME280;5229;41.820;23.490;2022-10-16T02:52:44;90614.75;;;8.11;66.65
10366;BME280;5229;41.820;23.490;2022-10-16T02:55:11;90617.34;;;8.11;65.70
10366;BME280;5229;41.820;23.490;2022-10-16T02:57:38;90619.19;;;8.10;66.34
10366;BME280;5229;41.820;23.490;2022-10-16T03:00:06;90623.28;;;8.11;65.97
10366;BME280;5229;41.820;23.490;2022-10-16T03:02:35;90621.50;;;8.12;66.18
10366;BME280;5229;41.820;23.490;2022-10-16T03:05:02;90628.47;;;8.11;66.55
10366;BME280;5229;41.820;23.490;2022-10-16T03:07:29;90619.94;;;8.11;66.20
10366;BME280;5229;41.820;23.490;2022-10-16T03:09:56;90623.56;;;8.10;66.48
10366;BME280;5229;41.820;23.490;2022-10-16T03:12:25;90622.50;;;8.11;66.24
10366;BME280;5229;41.820;23.490;2022-10-16T03:14:52;90631.03;;;8.11;66.30
10366;BME280;5229;41.820;23.490;2022-10-16T03:17:19;90626.66;;;8.12;65.90
10366;BME280;5229;41.820;23.490;2022-10-16T03:19:47;90625.59;;;8.13;66.12
10366;BME280;5229;41.820;23.490;2022-10-16T03:22:14;90627.69;;;8.11;66.71
10366;BME280;5229;41.820;23.490;2022-10-16T03:24:40;90630.25;;;8.11;67.08
10366;BME280;5229;41.820;23.490;2022-10-16T03:27:07;90640.06;;;8.14;66.73
10366;BME280;5229;41.820;23.490;2022-10-16T03:29:35;90635.41;;;8.16;66.20
10366;BME280;5229;41.820;23.490;2022-10-16T03:32:02;90639.25;;;8.18;66.83
10366;BME280;5229;41.820;23.490;2022-10-16T03:34:29;90637.41;;;8.24;66.66
10366;BME280;5229;41.820;23.490;2022-10-16T03:36:57;90640.72;;;8.29;66.76
10366;BME280;5229;41.820;23.490;2022-10-16T03:39:24;90639.91;;;8.34;66.80
10366;BME280;5229;41.820;23.490;2022-10-16T03:41:51;90642.41;;;8.39;66.28
10366;BME280;5229;41.820;23.490;2022-10-16T03:44:18;90636.94;;;8.45;67.08
10366;BME280;5229;41.820;23.490;2022-10-16T03:46:45;90643.63;;;8.46;66.78
10366;BME280;5229;41.820;23.490;2022-10-16T03:49:11;90639.53;;;8.45;66.25
10366;BME280;5229;41.820;23.490;2022-10-16T03:51:38;90639.00;;;8.43;65.89
10366;BME280;5229;41.820;23.490;2022-10-16T03:54:06;90641.66;;;8.38;66.47
10366;BME280;5229;41.820;23.490;2022-10-16T03:56:33;90636.81;;;8.32;66.47
10366;BME280;5229;41.820;23.490;2022-10-16T03:59:00;90640.19;;;8.27;66.25
10366;BME280;5229;41.820;23.490;2022-10-16T04:01:27;90646.69;;;8.25;67.08
10366;BME280;5229;41.820;23.490;2022-10-16T04:03:54;90642.06;;;8.22;67.04
10366;BME280;5229;41.820;23.490;2022-10-16T04:06:20;90641.81;;;8.18;66.56
10366;BME280;5229;41.820;23.490;2022-10-16T04:08:47;90644.13;;;8.20;66.72
10366;BME280;5229;41.820;23.490;2022-10-16T04:11:15;90638.97;;;8.20;67.01
10366;BME280;5229;41.820;23.490;2022-10-16T04:13:42;90637.19;;;8.15;67.16
10366;BME280;5229;41.820;23.490;2022-10-16T04:16:09;90626.59;;;8.17;67.14
10366;BME280;5229;41.820;23.490;2022-10-16T04:18:36;90632.03;;;8.15;67.32
10366;BME280;5229;41.820;23.490;2022-10-16T04:21:03;90635.94;;;8.13;67.05
10366;BME280;5229;41.820;23.490;2022-10-16T04:23:31;90638.00;;;8.11;66.70
10366;BME280;5229;41.820;23.490;2022-10-16T04:25:58;90640.59;;;8.11;67.04
10366;BME280;5229;41.820;23.490;2022-10-16T04:28:26;90635.66;;;8.14;66.57
10366;BME280;5229;41.820;23.490;2022-10-16T04:30:53;90631.25;;;8.15;66.62
10366;BME280;5229;41.820;23.490;2022-10-16T04:33:20;90634.09;;;8.13;67.42
10366;BME280;5229;41.820;23.490;2022-10-16T04:35:47;90627.41;;;8.12;67.15
10366;BME280;5229;41.820;23.490;2022-10-16T04:38:13;90631.31;;;8.10;67.37
10366;BME280;5229;41.820;23.490;2022-10-16T04:40:41;90628.22;;;8.08;67.31
10366;BME280;5229;41.820;23.490;2022-10-16T04:43:08;90632.91;;;8.06;66.79
10366;BME280;5229;41.820;23.490;2022-10-16T04:45:37;90628.78;;;8.05;67.28
10366;BME280;5229;41.820;23.490;2022-10-16T04:48:04;90635.75;;;8.04;66.69
10366;BME280;5229;41.820;23.490;2022-10-16T04:50:31;90634.97;;;8.04;66.88
10366;BME280;5229;41.820;23.490;2022-10-16T04:52:57;90636.25;;;8.06;67.56
10366;BME280;5229;41.820;23.490;2022-10-16T04:55:24;90634.94;;;8.09;66.97
10366;BME280;5229;41.820;23.490;2022-10-16T04:57:51;90643.19;;;8.11;67.45
10366;BME280;5229;41.820;23.490;2022-10-16T05:00:18;90633.91;;;8.10;67.14
10366;BME280;5229;41.820;23.490;2022-10-16T05:02:46;90646.28;;;8.13;66.87
10366;BME280;5229;41.820;23.490;2022-10-16T05:05:13;90646.75;;;8.15;66.29
10366;BME280;5229;41.820;23.490;2022-10-16T05:07:40;90643.41;;;8.14;66.80
10366;BME280;5229;41.820;23.490;2022-10-16T05:10:07;90653.47;;;8.16;66.78
10366;BME280;5229;41.820;23.490;2022-10-16T05:12:34;90651.09;;;8.19;66.96
10366;BME280;5229;41.820;23.490;2022-10-16T05:15:01;90649.78;;;8.27;67.52
10366;BME280;5229;41.820;23.490;2022-10-16T05:17:27;90651.25;;;8.33;66.97
10366;BME280;5229;41.820;23.490;2022-10-16T05:19:56;90655.03;;;8.69;66.91
10366;BME280;5229;41.820;23.490;2022-10-16T05:22:23;90647.13;;;9.77;65.89
10366;BME280;5229;41.820;23.490;2022-10-16T05:24:50;90662.47;;;11.45;62.13
10366;BME280;5229;41.820;23.490;2022-10-16T05:27:17;90658.66;;;13.06;58.14
10366;BME280;5229;41.820;23.490;2022-10-16T05:29:45;90669.53;;;14.49;55.01
10366;BME280;5229;41.820;23.490;2022-10-16T05:32:12;90667.97;;;15.78;51.78
10366;BME280;5229;41.820;23.490;2022-10-16T05:34:39;90672.75;;;16.90;49.45
10366;BME280;5229;41.820;23.490;2022-10-16T05:37:07;90681.34;;;17.96;47.33
10366;BME280;5229;41.820;23.490;2022-10-16T05:39:34;90681.56;;;18.97;44.98
10366;BME280;5229;41.820;23.490;2022-10-16T05:42:02;90687.53;;;20.03;43.31
10366;BME280;5229;41.820;23.490;2022-10-16T05:44:29;90694.09;;;21.01;41.61
10366;BME280;5229;41.820;23.490;2022-10-16T05:46:56;90701.88;;;21.99;39.82
10366;BME280;5229;41.820;23.490;2022-10-16T05:49:23;90704.53;;;22.81;38.36
10366;BME280;5229;41.820;23.490;2022-10-16T05:51:49;90712.81;;;23.42;37.36
10366;BME280;5229;41.820;23.490;2022-10-16T05:54:18;90711.75;;;23.90;35.83
10366;BME280;5229;41.820;23.490;2022-10-16T05:56:45;90713.50;;;24.16;35.30
10366;BME280;5229;41.820;23.490;2022-10-16T05:59:12;90719.53;;;24.63;34.56
10366;BME280;5229;41.820;23.490;2022-10-16T06:01:39;90714.88;;;25.25;33.80
10366;BME280;5229;41.820;23.490;2022-10-16T06:04:05;90715.88;;;25.99;32.55
10366;BME280;5229;41.820;23.490;2022-10-16T06:06:32;90729.56;;;26.26;31.70
10366;BME280;5229;41.820;23.490;2022-10-16T06:09:02;90717.75;;;26.06;31.41
10366;BME280;5229;41.820;23.490;2022-10-16T06:11:31;90729.41;;;25.52;32.10
10366;BME280;5229;41.820;23.490;2022-10-16T06:14:01;90733.66;;;24.85;33.31
10366;BME280;5229;41.820;23.490;2022-10-16T06:16:32;90734.75;;;24.23;33.85
10366;BME280;5229;41.820;23.490;2022-10-16T06:19:00;90736.09;;;23.63;34.30
10366;BME280;5229;41.820;23.490;2022-10-16T06:21:28;90733.69;;;23.18;34.64
10366;BME280;5229;41.820;23.490;2022-10-16T06:23:56;90736.81;;;23.23;34.56
10366;BME280;5229;41.820;23.490;2022-10-16T06:26:24;90747.16;;;23.35;34.38
10366;BME280;5229;41.820;23.490;2022-10-16T06:28:53;90743.56;;;23.21;34.77
10366;BME280;5229;41.820;23.490;2022-10-16T06:31:20;90744.69;;;23.49;34.53
10366;BME280;5229;41.820;23.490;2022-10-16T06:33:50;90747.53;;;24.10;33.38
10366;BME280;5229;41.820;23.490;2022-10-16T06:36:18;90755.78;;;25.06;32.00
10366;BME280;5229;41.820;23.490;2022-10-16T06:38:48;90748.88;;;25.84;31.09
10366;BME280;5229;41.820;23.490;2022-10-16T06:41:16;90750.03;;;26.04;30.92
10366;BME280;5229;41.820;23.490;2022-10-16T06:43:44;90750.06;;;26.22;30.58
10366;BME280;5229;41.820;23.490;2022-10-16T06:46:14;90759.19;;;26.52;30.17
10366;BME280;5229;41.820;23.490;2022-10-16T06:48:41;90765.19;;;27.19;29.47
10366;BME280;5229;41.820;23.490;2022-10-16T06:51:10;90770.22;;;28.00;28.26
10366;BME280;5229;41.820;23.490;2022-10-16T06:53:42;90770.44;;;28.78;27.42
10366;BME280;5229;41.820;23.490;2022-10-16T06:56:13;90771.22;;;29.52;26.49
10366;BME280;5229;41.820;23.490;2022-10-16T06:58:41;90773.72;;;30.00;25.76
10366;BME280;5229;41.820;23.490;2022-10-16T07:01:10;90779.22;;;29.56;26.30
10366;BME280;5229;41.820;23.490;2022-10-16T07:03:39;90784.84;;;28.36;27.80
10366;BME280;5229;41.820;23.490;2022-10-16T07:06:08;90781.22;;;26.88;29.55
10366;BME280;5229;41.820;23.490;2022-10-16T07:08:36;90778.03;;;25.60;31.03
10366;BME280;5229;41.820;23.490;2022-10-16T07:11:05;90772.84;;;24.51;32.20
10366;BME280;5229;41.820;23.490;2022-10-16T07:13:33;90779.47;;;23.48;33.61
10366;BME280;5229;41.820;23.490;2022-10-16T07:16:04;90784.09;;;22.69;34.46
10366;BME280;5229;41.820;23.490;2022-10-16T07:18:31;90768.31;;;22.01;35.28
10366;BME280;5229;41.820;23.490;2022-10-16T07:21:05;90778.38;;;21.32;36.05
10366;BME280;5229;41.820;23.490;2022-10-16T07:23:31;90773.41;;;20.73;37.13
10366;BME280;5229;41.820;23.490;2022-10-16T07:25:58;90772.25;;;20.21;37.85
10366;BME280;5229;41.820;23.490;2022-10-16T07:28:26;90767.66;;;19.86;38.59
10366;BME280;5229;41.820;23.490;2022-10-16T07:30:53;90767.91;;;19.97;38.61
10366;BME280;5229;41.820;23.490;2022-10-16T07:33:19;90769.59;;;20.36;38.02
10366;BME280;5229;41.820;23.490;2022-10-16T07:35:50;90778.66;;;20.73;37.42
10366;BME280;5229;41.820;23.490;2022-10-16T07:38:20;90779.34;;;20.70;37.69
10366;BME280;5229;41.820;23.490;2022-10-16T07:40:47;90781.75;;;20.75;37.68
10366;BME280;5229;41.820;23.490;2022-10-16T07:43:14;90773.25;;;20.66;37.99
10366;BME280;5229;41.820;23.490;2022-10-16T07:45:47;90773.47;;;20.42;38.32
10366;BME280;5229;41.820;23.490;2022-10-16T07:48:15;90773.94;;;20.13;39.37
10366;BME280;5229;41.820;23.490;2022-10-16T07:50:42;90761.44;;;19.79;39.90
10366;BME280;5229;41.820;23.490;2022-10-16T07:53:09;90763.47;;;19.54;40.38
10366;BME280;5229;41.820;23.490;2022-10-16T07:55:38;90774.22;;;19.22;41.17
10366;BME280;5229;41.820;23.490;2022-10-16T07:58:05;90771.66;;;18.82;41.80
10366;BME280;5229;41.820;23.490;2022-10-16T08:00:32;90766.28;;;18.51;42.54
10366;BME280;5229;41.820;23.490;2022-10-16T08:02:59;90768.13;;;18.27;42.75
10366;BME280;5229;41.820;23.490;2022-10-16T08:05:26;90760.72;;;18.05;43.17
10366;BME280;5229;41.820;23.490;2022-10-16T08:07:53;90771.09;;;17.89;43.01
10366;BME280;5229;41.820;23.490;2022-10-16T08:10:23;90771.66;;;17.71;43.87
10366;BME280;5229;41.820;23.490;2022-10-16T08:12:51;90774.25;;;17.59;44.00
10366;BME280;5229;41.820;23.490;2022-10-16T08:15:19;90766.78;;;17.48;43.95
10366;BME280;5229;41.820;23.490;2022-10-16T08:17:54;90774.88;;;17.43;44.17
10366;BME280;5229;41.820;23.490;2022-10-16T08:20:21;90771.69;;;17.38;44.58
10366;BME280;5229;41.820;23.490;2022-10-16T08:22:48;90776.69;;;17.31;44.24
10366;BME280;5229;41.820;23.490;2022-10-16T08:25:14;90777.97;;;17.25;44.28
10366;BME280;5229;41.820;23.490;2022-10-16T08:27:41;90778.75;;;17.25;44.90
10366;BME280;5229;41.820;23.490;2022-10-16T08:30:10;90773.19;;;17.27;44.35
10366;BME280;5229;41.820;23.490;2022-10-16T08:32:37;90766.06;;;17.27;44.13
10366;BME280;5229;41.820;23.490;2022-10-16T08:35:05;90767.06;;;17.35;44.42
10366;BME280;5229;41.820;23.490;2022-10-16T08:37:32;90764.81;;;17.45;44.10
10366;BME280;5229;41.820;23.490;2022-10-16T08:39:59;90765.72;;;17.50;43.57
10366;BME280;5229;41.820;23.490;2022-10-16T08:42:35;90773.03;;;17.56;43.47
10366;BME280;5229;41.820;23.490;2022-10-16T08:45:26;90761.91;;;17.71;42.88
10366;BME280;5229;41.820;23.490;2022-10-16T08:48:09;90766.84;;;17.97;42.64
10366;BME280;5229;41.820;23.490;2022-10-16T08:50:41;90771.44;;;18.24;42.44
10366;BME280;5229;41.820;23.490;2022-10-16T08:53:14;90774.47;;;18.50;41.75
10366;BME280;5229;41.820;23.490;2022-10-16T08:55:44;90765.34;;;18.71;41.37
10366;BME280;5229;41.820;23.490;2022-10-16T08:58:13;90769.66;;;18.91;40.51
10366;BME280;5229;41.820;23.490;2022-10-16T09:00:44;90776.00;;;19.18;40.13
10366;BME280;5229;41.820;23.490;2022-10-16T09:03:17;90776.81;;;19.61;39.62
10366;BME280;5229;41.820;23.490;2022-10-16T09:05:54;90775.03;;;20.43;38.19
10366;BME280;5229;41.820;23.490;2022-10-16T09:08:31;90778.53;;;21.80;36.28
10366;BME280;5229;41.820;23.490;2022-10-16T09:11:02;90776.03;;;23.18;34.62
10366;BME280;5229;41.820;23.490;2022-10-16T09:13:36;90779.91;;;24.84;31.90
10366;BME280;5229;41.820;23.490;2022-10-16T09:16:16;90783.50;;;26.44;30.30
10366;BME280;5229;41.820;23.490;2022-10-16T09:18:52;90792.31;;;28.00;28.44
10366;BME280;5229;41.820;23.490;2022-10-16T09:21:23;90789.75;;;29.36;26.77
10366;BME280;5229;41.820;23.490;2022-10-16T09:23:52;90793.16;;;30.34;25.40
10366;BME280;5229;41.820;23.490;2022-10-16T09:26:20;90792.38;;;31.10;24.54
10366;BME280;5229;41.820;23.490;2022-10-16T09:28:47;90782.66;;;31.81;23.74
10366;BME280;5229;41.820;23.490;2022-10-16T09:31:20;90790.75;;;32.52;22.61
10366;BME280;5229;41.820;23.490;2022-10-16T09:33:51;90788.59;;;33.28;21.88
10366;BME280;5229;41.820;23.490;2022-10-16T09:36:20;90796.63;;;33.88;20.91
10366;BME280;5229;41.820;23.490;2022-10-16T09:38:47;90785.75;;;34.45;20.68
10366;BME280;5229;41.820;23.490;2022-10-16T09:41:18;90790.19;;;35.02;19.40
10366;BME280;5229;41.820;23.490;2022-10-16T09:43:52;90782.72;;;35.65;18.58
10366;BME280;5229;41.820;23.490;2022-10-16T09:46:26;90787.66;;;36.22;18.40
10366;BME280;5229;41.820;23.490;2022-10-16T09:48:55;90783.69;;;36.66;18.11
10366;BME280;5229;41.820;23.490;2022-10-16T09:51:25;90790.50;;;36.71;17.26
10366;BME280;5229;41.820;23.490;2022-10-16T09:53:58;90781.66;;;36.79;17.16
10366;BME280;5229;41.820;23.490;2022-10-16T09:56:27;90784.41;;;36.97;16.51
10366;BME280;5229;41.820;23.490;2022-10-16T09:58:56;90781.75;;;37.15;16.25
10366;BME280;5229;41.820;23.490;2022-10-16T10:01:30;90780.47;;;37.38;15.79
10366;BME280;5229;41.820;23.490;2022-10-16T10:03:58;90781.25;;;37.56;15.74
10366;BME280;5229;41.820;23.490;2022-10-16T10:06:30;90786.09;;;37.79;15.79
10366;BME280;5229;41.820;23.490;2022-10-16T10:09:03;90781.59;;;37.94;15.47
10366;BME280;5229;41.820;23.490;2022-10-16T10:11:55;90787.00;;;37.94;15.60
10366;BME280;5229;41.820;23.490;2022-10-16T10:14:25;90780.84;;;38.03;15.73
10366;BME280;5229;41.820;23.490;2022-10-16T10:17:16;90782.78;;;37.93;15.59
10366;BME280;5229;41.820;23.490;2022-10-16T10:19:49;90784.31;;;37.67;15.64
10366;BME280;5229;41.820;23.490;2022-10-16T10:22:19;90780.03;;;37.39;15.56
10366;BME280;5229;41.820;23.490;2022-10-16T10:25:01;90775.94;;;37.17;15.38
10366;BME280;5229;41.820;23.490;2022-10-16T10:27:42;90772.09;;;37.05;14.89
10366;BME280;5229;41.820;23.490;2022-10-16T10:30:18;90767.81;;;36.47;15.04
10366;BME280;5229;41.820;23.490;2022-10-16T10:33:00;90760.50;;;35.14;15.65
10366;BME280;5229;41.820;23.490;2022-10-16T10:35:41;90749.88;;;33.54;17.19
10366;BME280;5229;41.820;23.490;2022-10-16T10:38:24;90743.13;;;32.01;17.95
10366;BME280;5229;41.820;23.490;2022-10-16T10:41:01;90734.72;;;30.79;18.52
10366;BME280;5229;41.820;23.490;2022-10-16T10:43:41;90745.00;;;29.74;19.05
10366;BME280;5229;41.820;23.490;2022-10-16T10:46:20;90737.44;;;28.95;19.35
10366;BME280;5229;41.820;23.490;2022-10-16T10:49:01;90739.28;;;28.09;20.33
10366;BME280;5229;41.820;23.490;2022-10-16T10:51:34;90726.31;;;27.43;20.23
10366;BME280;5229;41.820;23.490;2022-10-16T10:54:14;90723.03;;;26.83;21.30
10366;BME280;5229;41.820;23.490;2022-10-16T10:56:51;90723.09;;;26.27;21.72
10366;BME280;5229;41.820;23.490;2022-10-16T10:59:32;90724.53;;;25.75;22.12
10366;BME280;5229;41.820;23.490;2022-10-16T11:02:10;90713.44;;;25.34;22.27
10366;BME280;5229;41.820;23.490;2022-10-16T11:04:50;90713.25;;;24.96;22.76
10366;BME280;5229;41.820;23.490;2022-10-16T11:07:25;90710.81;;;24.63;23.47
10366;BME280;5229;41.820;23.490;2022-10-16T11:09:58;90706.00;;;24.28;23.67
10366;BME280;5229;41.820;23.490;2022-10-16T11:12:31;90702.38;;;24.00;24.02
10366;BME280;5229;41.820;23.490;2022-10-16T11:15:03;90700.28;;;23.76;23.68
10366;BME280;5229;41.820;23.490;2022-10-16T11:17:34;90699.31;;;23.51;24.09
10366;BME280;5229;41.820;23.490;2022-10-16T11:20:13;90699.38;;;23.25;24.53
10366;BME280;5229;41.820;23.490;2022-10-16T11:22:43;90696.19;;;23.09;24.51
10366;BME280;5229;41.820;23.490;2022-10-16T11:25:16;90698.59;;;22.91;24.75
10366;BME280;5229;41.820;23.490;2022-10-16T11:27:50;90691.47;;;22.65;24.80
10366;BME280;5229;41.820;23.490;2022-10-16T11:30:20;90694.94;;;22.43;25.54
10366;BME280;5229;41.820;23.490;2022-10-16T11:33:13;90687.03;;;22.17;25.52
10366;BME280;5229;41.820;23.490;2022-10-16T11:35:51;90686.03;;;21.99;25.56
10366;BME280;5229;41.820;23.490;2022-10-16T11:38:26;90684.53;;;21.76;25.94
10366;BME280;5229;41.820;23.490;2022-10-16T11:40:57;90685.31;;;21.57;26.60
10366;BME280;5229;41.820;23.490;2022-10-16T11:43:29;90686.22;;;21.42;26.54
10366;BME280;5229;41.820;23.490;2022-10-16T11:46:03;90687.00;;;21.24;26.57
10366;BME280;5229;41.820;23.490;2022-10-16T11:48:35;90682.94;;;21.07;27.08
10366;BME280;5229;41.820;23.490;2022-10-16T11:51:11;90686.53;;;20.99;27.69
10366;BME280;5229;41.820;23.490;2022-10-16T11:53:45;90687.28;;;20.96;28.00
10366;BME280;5229;41.820;23.490;2022-10-16T11:56:16;90686.84;;;20.94;27.99
10366;BME280;5229;41.820;23.490;2022-10-16T11:58:52;90687.19;;;20.93;28.04
10366;BME280;5229;41.820;23.490;2022-10-16T12:01:25;90684.53;;;20.93;28.42
10366;BME280;5229;41.820;23.490;2022-10-16T12:04:03;90684.72;;;20.84;27.66
10366;BME280;5229;41.820;23.490;2022-10-16T12:06:35;90680.50;;;20.80;27.20
10366;BME280;5229;41.820;23.490;2022-10-16T12:09:04;90682.25;;;20.72;27.02
10366;BME280;5229;41.820;23.490;2022-10-16T12:11:34;90681.00;;;20.66;27.05
10366;BME280;5229;41.820;23.490;2022-10-16T12:14:07;90679.81;;;20.64;27.53
10366;BME280;5229;41.820;23.490;2022-10-16T12:16:52;90684.25;;;20.60;27.76
10366;BME280;5229;41.820;23.490;2022-10-16T12:19:20;90678.56;;;20.58;27.84
10366;BME280;5229;41.820;23.490;2022-10-16T12:21:50;90677.38;;;20.55;27.81
10366;BME280;5229;41.820;23.490;2022-10-16T12:24:34;90682.06;;;20.46;27.73
10366;BME280;5229;41.820;23.490;2022-10-16T12:27:02;90682.44;;;20.45;28.04
10366;BME280;5229;41.820;23.490;2022-10-16T12:29:34;90680.41;;;20.38;28.02
10366;BME280;5229;41.820;23.490;2022-10-16T12:32:03;90684.84;;;20.34;28.67
10366;BME280;5229;41.820;23.490;2022-10-16T12:34:37;90684.41;;;20.32;28.80
10366;BME280;5229;41.820;23.490;2022-10-16T12:37:20;90694.06;;;20.25;28.85
10366;BME280;5229;41.820;23.490;2022-10-16T12:39:48;90690.94;;;20.19;28.70
10366;BME280;5229;41.820;23.490;2022-10-16T12:42:31;90687.03;;;20.13;28.79
10366;BME280;5229;41.820;23.490;2022-10-16T12:44:59;90691.44;;;20.09;28.88
10366;BME280;5229;41.820;23.490;2022-10-16T12:47:37;90683.81;;;20.04;29.38
10366;BME280;5229;41.820;23.490;2022-10-16T12:50:27;90689.31;;;19.99;29.69
10366;BME280;5229;41.820;23.490;2022-10-16T12:52:55;90688.91;;;19.97;30.05
10366;BME280;5229;41.820;23.490;2022-10-16T12:55:22;90689.16;;;19.92;30.43
10366;BME280;5229;41.820;23.490;2022-10-16T12:58:03;90696.50;;;19.83;31.11
10366;BME280;5229;41.820;23.490;2022-10-16T13:00:41;90693.44;;;19.81;31.24
10366;BME280;5229;41.820;23.490;2022-10-16T13:03:41;90697.34;;;19.71;31.85
10366;BME280;5229;41.820;23.490;2022-10-16T13:06:19;90703.34;;;19.72;31.74
10366;BME280;5229;41.820;23.490;2022-10-16T13:09:07;90704.75;;;19.66;31.96
10366;BME280;5229;41.820;23.490;2022-10-16T13:11:58;90704.63;;;19.62;32.29
10366;BME280;5229;41.820;23.490;2022-10-16T13:14:57;90707.88;;;19.56;32.32
10366;BME280;5229;41.820;23.490;2022-10-16T13:17:32;90709.66;;;19.52;32.84
10366;BME280;5229;41.820;23.490;2022-10-16T13:20:09;90709.72;;;19.40;33.09
10366;BME280;5229;41.820;23.490;2022-10-16T13:22:43;90712.19;;;19.33;33.19
10366;BME280;5229;41.820;23.490;2022-10-16T13:25:23;90703.44;;;19.29;33.44